TAF LEAO
METAR LEAO
LEAO 072200Z 23009KT 200V280 6000 BKN012 BKN017 10/09 Q1017=
LEAO 072130Z 25011KT 220V280 9999 BKN020 10/09 Q1017=
LEAO 072100Z 25011KT 200V280 9999 FEW023 BKN028 11/08 Q1017=
LEAO 072030Z 25011KT 210V280 9999 BKN030 11/08 Q1017=
LEAO 072000Z 25007KT 210V290 9999 BKN035 10/08 Q1018=
WC LEAO
WS LEAO
WV LEAO